Tampa, Florida
Traffic Map
Current Weather Conditions
Tampa, Florida
Broken Clouds
Broken Clouds
74°
Feels Like: 74°
Wind Chill: 74° Ceiling: 25000
Heat Index: 74° Visibility: 10mi
Dew Point: 71° Wind: 5mph
Humidity: 91% Direction: ° ()
Pressure: 30.07in Gusts: 0mph
Raw Report DataKTPA 220353Z VRB04KT 10SM FEW120 BKN250 23/22 A3007 RMK AO2 RAE0255 SLP181 P0000 T02330217
Traffic Incident Summary
Active as of:
Severity:
Category:
InformationThere was an issue retrieving the traffic information for this location. Please try a different location or try again shortly.
Advertisements